Mount Joy, Pennsylvania
Current Conditions -  °F | °C
As of 1:53 AM on Wednesday 28 Jan 2015 (Local Time) from KLNS Reporting Station
Clear Clear  
Wind Chill:   Ceiling: Unl
Heat Index: 16°   Visibility: 10mi
Dew Point:   Wind: 13mph
Humidity: 52%   Direction: 310°NW
Pressure: 29.99"   Gusts: NA
Location:  40.11°N, 76.51°W
Report Text: KLNS 280653Z AUTO 31011KT 10SM CLR M09/M17 A2999 RMK AO2 SLP162 T10891172
Loading
Personal Weather Stations






























Interactive Weather Map New forecast layout! Learn more

10-Day Weather Forecast

Advertisements
Track Severe Weather on mobile